首页
METAR-TAF:

METAR-TAF

机场 :

勒图凯巴黎普拉日, 法国

纬度: 50-30-53N, 经度: 001-37-39E, 海拔: 6米

当前天气观测

该预报发布于28分钟前的18:00 UTC
风速11节,风向西转西南,在西南西之间变化
温度 18°C
湿度 100%
气压 1014 hPa
能見度: 3600
阴天层高于300英尺
毛毛雨, 轻雾

METAR: LFAT 041800Z AUTO 24011KT 220V280 3600 DZ BR OVC003 18/18 Q1014 TEMPO 2000 RADZ

时间: 20:28 (18:28 UTC)

预报

该预报发布于58分钟前的17:30 UTC
预报有效从04日的 17点(UTC)到 04日的 24点(UTC)
风速13节,风向西南
能见度10公里或以上
阴天层高于600英尺
短暂存在
从 04日的 17点(UTC)到 04日的 24点(UTC)
能見度: 2000
阴天层高于300英尺
雨, 毛毛雨

TAF: LFAT 041730Z 0417/0424 23013KT 9999 OVC006 TEMPO 0417/0424 2000 RADZ OVC003

超过4000个机场的气象观测和天气预报(METAR&TAF报告)。

可查询的气象台以黄色和红色小点在地图上表示。

将鼠标移到小点上方,可查看气象台名称。

然后点击查看天气观测和预报。

如需切换地图:点击带黑十字的绿色按钮放大地图;点击带横线的绿色按钮缩小地图;或者点击绿色箭头查看邻近地区的地图。


METAR-TAF: